KOMN

Ormond Beach Municipal Airport

Ormond Beach, Florida, USA
METAR KOMN 222250Z 09003KT 10SM SCT065 24/14 A3014 RMK LAST
Observed Flight Rules
Oct-22 @ 22:50 UTC (11 hours ago) Visual Flight Rules
Wind Visibility Clouds
90° at 3 knots 10 miles
  • Scattered at 6,500' AGL
Temperatures Readings
Current 24°C / 75°F
Dewpoint 14°C / 57°F
Humidity 54%
Altimeter 30.14" Hg
Pressure 1021 hPa
Elevation 9
METAR KOMN 222250Z 09003KT 10SM SCT065 24/14 A3014 RMK LAST
Observed Flight Rules
Oct-22 @ 22:50 UTC
(11 hours ago)
VFR
Wind Visibility
90° at 3 knots 10 miles
Clouds
  • Scattered at 6,500' AGL
Temperature Dewpoint
24°C / 75°F 14°C / 57°F
Humidity Altimeter Pressure
54% 30.14" Hg 1021 hPa